Lynnwood, WA

5:49 PM PDT on August 30, 2015 (GMT -0700)
K7WV Brierwood | | Change Station
CLOSE
Current Station
Personal Weather Station
Location: Brier, WA
Elevation: 282 ft
Nearby Weather Stations

Elev 282 ft 47.80 °N, 122.26 °W | Updated 14 seconds ago

Partly Cloudy
Partly Cloudy
66.8 °F
Feels Like 66.8 °F
N
2.0
Wind Variable Wind from SSW
Gusts 13.0 mph

Today
High -- | Low -- °F
--% Chance of Precip.
Yesterday
High -- | Low -- °F
Precip. -- in
6:24 AM 7:54 PM
Full, 98% visible
Pressure 29.94 in
Visibility 10.0 miles
Clouds Few 5000 ft
Scattered Clouds 9000 ft
Dew Point 55 °F
Humidity 65%
Rainfall 0.18 in
Snow Depth Not available.
UV 2 out of 12
Pollen .50 out of 12
Air Quality Not available.
Flu Activity Not available.
METAR KPAE 302353Z 18012KT 10SM FEW050 SCT090 18/10 A2994 RMK AO2 PK WND 19026/2302 SLP139 T01830100 10200 20156 53002 $
Pressure 29.94 in
Visibility 10.0 miles
Clouds Few 5000 ft
Scattered Clouds 9000 ft
Dew Point 55 °F
Humidity 65%
Rainfall 0.18 in
Snow Depth Not available.
UV 2 out of 12
Pollen .50 out of 12
Air Quality Not available.
Flu Activity Not available.
METAR KPAE 302353Z 18012KT 10SM FEW050 SCT090 18/10 A2994 RMK AO2 PK WND 19026/2302 SLP139 T01830100 10200 20156 53002 $

10-Day Weather Forecast

×

Almanac

Astronomy

Aug. 30, 2015 Rise Set
Actual Time
Civil Twilight
Nautical Twilight
Astronomical Twilight
Moon
Length of Visible Light
Length of Day
Tomorrow will be .
, % of the Moon is Illuminated

Today's Extremes

State Highs State Lows

Community

WunderPhotos

Upload Photos

1,851,116 photos uploaded!

WunderBlogs® & News

Nearby

Air Quality

  Air Quality AQ Index Pollutant
Not available.

Snow Depth

Station Depth Elevation

Earthquake Activity

City Distance Mag. Time & Date
Minimum magnitude displayed is 2.5.

Coastal Water Temperatures

Place Temperature

Stations

Nearby Weather Stations

Station Location Temp. Windchill Dew Point Humidity Wind Precip. Elev Updated Type